createdAt,value
2023-05-23T04:50:18.557Z,8.57
2023-05-23T04:55:21.603Z,10.93
2023-05-23T05:00:24.621Z,9.50
2023-05-23T05:05:27.520Z,7.20
2023-05-23T05:10:30.475Z,6.47
2023-05-23T05:15:33.650Z,8.93
2023-05-23T05:20:36.474Z,9.47
2023-05-23T05:25:41.279Z,8.57
2023-05-23T05:30:46.300Z,9.40
2023-05-23T05:35:49.664Z,6.73
2023-05-23T05:40:52.518Z,6.60
2023-05-23T05:45:55.428Z,5.47
2023-05-23T05:51:01.164Z,8.33
2023-05-23T05:56:04.271Z,8.07
2023-05-23T06:01:07.118Z,9.33
2023-05-23T06:06:10.371Z,9.53
2023-05-23T06:11:13.272Z,7.43
2023-05-23T06:16:16.181Z,8.73
2023-05-23T06:21:19.016Z,4.73
2023-05-23T06:26:21.837Z,9.50
2023-05-23T06:31:24.750Z,4.90
2023-05-23T06:36:27.601Z,5.87
2023-05-23T06:41:30.471Z,9.33
2023-05-23T06:46:33.669Z,4.80
2023-05-23T06:51:36.592Z,9.57
2023-05-23T06:56:39.409Z,4.97
2023-05-23T07:01:42.296Z,4.50
2023-05-23T07:06:46.379Z,6.50
2023-05-23T07:11:49.198Z,6.03
2023-05-23T07:16:52.110Z,6.13
2023-05-23T07:21:54.995Z,8.10
2023-05-23T07:26:57.819Z,4.23
2023-05-23T07:32:00.622Z,5.33
2023-05-23T07:37:03.503Z,7.95
2023-05-23T07:42:06.412Z,4.07
2023-05-23T07:47:09.229Z,8.50
2023-05-23T07:52:12.121Z,4.25
2023-05-23T07:57:16.665Z,3.42
2023-05-23T08:02:19.812Z,8.00
2023-05-23T08:07:22.918Z,8.13
2023-05-23T08:12:25.910Z,3.83
2023-05-23T08:17:28.879Z,6.45
2023-05-23T08:22:31.885Z,8.15
2023-05-23T08:27:36.074Z,5.53
2023-05-23T08:32:38.917Z,7.38
2023-05-23T08:37:42.039Z,2.33
2023-05-23T08:42:45.042Z,4.40
2023-05-23T08:47:48.193Z,3.30
2023-05-23T08:52:58.844Z,6.93
2023-05-23T08:58:01.755Z,4.13
2023-05-23T09:03:04.779Z,5.78
2023-05-23T09:08:07.632Z,4.75
2023-05-23T09:13:10.512Z,3.92
2023-05-23T09:18:14.463Z,7.07
2023-05-23T09:23:17.542Z,4.25
2023-05-23T09:28:20.367Z,5.43
2023-05-23T09:33:23.306Z,4.35
2023-05-23T09:38:26.389Z,4.57
2023-05-23T09:43:29.768Z,6.40
2023-05-23T09:48:33.611Z,6.57
2023-05-23T09:53:36.616Z,9.30
2023-05-23T09:58:40.394Z,2.67
2023-05-23T10:03:49.958Z,4.30
2023-05-23T10:09:06.383Z,5.93
2023-05-23T10:14:13.255Z,2.13
2023-05-23T10:19:27.443Z,5.38
2023-05-23T10:24:30.719Z,3.83
2023-05-23T10:29:35.423Z,6.40
2023-05-23T10:34:51.020Z,3.50
2023-05-23T10:40:01.575Z,2.55
2023-05-23T10:45:24.363Z,3.17
2023-05-23T10:50:35.557Z,5.15
2023-05-23T10:55:38.619Z,6.05
2023-05-23T11:00:55.198Z,5.85
2023-05-23T11:05:58.096Z,7.05
2023-05-23T11:11:02.728Z,7.47
2023-05-23T11:16:51.037Z,2.47
2023-05-23T11:22:02.281Z,3.10
2023-05-23T11:27:05.370Z,3.80
2023-05-23T11:32:17.335Z,2.65
2023-05-23T11:37:25.372Z,2.60
2023-05-23T11:42:29.591Z,4.50
2023-05-23T11:47:32.447Z,3.53
2023-05-23T11:52:35.475Z,4.50
2023-05-23T11:57:41.531Z,3.80
2023-05-23T12:02:45.371Z,4.55
2023-05-23T12:07:49.458Z,3.60
2023-05-23T12:12:52.564Z,4.00
2023-05-23T12:17:57.092Z,3.33
2023-05-23T12:23:34.914Z,2.85
2023-05-23T12:28:45.023Z,5.60
2023-05-23T12:33:49.098Z,9.95
2023-05-23T12:38:53.434Z,6.05
2023-05-23T12:43:56.966Z,5.35
2023-05-23T12:48:59.965Z,6.85
2023-05-23T12:54:03.031Z,7.40
2023-05-23T12:59:07.946Z,6.22
2023-05-23T13:04:11.097Z,7.63
2023-05-23T13:09:14.070Z,5.77
2023-05-23T13:14:17.000Z,9.77
2023-05-23T13:19:19.964Z,9.90
2023-05-23T13:24:22.873Z,5.80
2023-05-23T13:29:25.842Z,6.70
2023-05-23T13:34:28.846Z,4.00
2023-05-23T13:39:31.776Z,9.90
2023-05-23T13:44:34.703Z,4.83
2023-05-23T13:49:37.622Z,6.20
2023-05-23T13:54:41.473Z,5.13
2023-05-23T13:59:44.356Z,7.53
2023-05-23T14:04:47.231Z,5.17
2023-05-23T14:09:50.476Z,4.60
2023-05-23T14:14:53.489Z,7.03
2023-05-23T14:19:56.458Z,7.30
2023-05-23T14:24:59.469Z,6.40
2023-05-23T14:30:02.786Z,5.77
2023-05-23T14:35:11.851Z,6.37
2023-05-23T14:40:16.373Z,7.23
2023-05-23T14:45:19.430Z,7.70
2023-05-23T14:50:22.460Z,8.87
2023-05-23T14:55:25.518Z,9.52
2023-05-23T15:00:28.510Z,6.05
2023-05-23T15:05:31.363Z,8.23
2023-05-23T15:10:34.289Z,11.88
2023-05-23T15:15:37.759Z,5.90
2023-05-23T15:20:40.776Z,5.82
2023-05-23T15:25:48.997Z,6.67
2023-05-23T15:30:53.708Z,7.53
2023-05-23T15:35:58.891Z,8.57
2023-05-23T15:41:02.448Z,7.10
2023-05-23T15:46:08.653Z,7.47
2023-05-23T15:51:12.327Z,8.25
2023-05-23T15:56:15.927Z,6.68
2023-05-23T16:01:18.882Z,5.63
2023-05-23T16:06:22.818Z,8.23
2023-05-23T16:11:25.676Z,7.20
2023-05-23T16:16:28.952Z,7.35
2023-05-23T16:21:32.269Z,7.10
2023-05-23T16:26:35.398Z,5.15
2023-05-23T16:31:38.718Z,9.10
2023-05-23T16:36:41.939Z,17.70
2023-05-23T16:41:44.948Z,6.80
2023-05-23T16:46:48.090Z,11.97
2023-05-23T16:51:51.194Z,9.07
2023-05-23T16:56:54.046Z,6.80
2023-05-23T17:01:57.437Z,9.90
2023-05-23T17:07:00.618Z,10.05
2023-05-23T17:12:03.943Z,8.23
2023-05-23T17:17:07.389Z,11.70
2023-05-23T17:22:10.285Z,6.90
2023-05-23T17:27:13.445Z,7.97
2023-05-23T17:32:16.614Z,10.20
2023-05-23T17:37:20.063Z,14.75
2023-05-23T17:42:23.341Z,9.50
2023-05-23T17:47:27.244Z,10.90
2023-05-23T17:52:31.124Z,12.37
2023-05-23T17:57:34.489Z,22.37
2023-05-23T18:02:37.440Z,18.73
2023-05-23T18:07:41.073Z,22.20
2023-05-23T18:12:44.315Z,18.73
2023-05-23T18:17:47.951Z,13.70
2023-05-23T18:22:53.757Z,13.57
2023-05-23T18:28:01.777Z,11.03
2023-05-23T18:33:05.469Z,10.73
2023-05-23T18:38:08.451Z,11.87
2023-05-23T18:43:13.508Z,13.03
2023-05-23T18:48:16.761Z,9.93
2023-05-23T18:53:20.448Z,12.43
2023-05-23T18:58:24.165Z,10.73
2023-05-23T19:03:28.029Z,6.77
2023-05-23T19:08:32.272Z,10.57
2023-05-23T19:13:35.130Z,6.90
2023-05-23T19:18:38.008Z,9.07
2023-05-23T19:23:41.210Z,9.47
2023-05-23T19:28:44.366Z,8.63
2023-05-23T19:33:47.508Z,9.00
2023-05-23T19:38:51.906Z,8.90
2023-05-23T19:43:55.063Z,12.80
2023-05-23T19:48:57.981Z,10.13
2023-05-23T19:54:01.359Z,14.03
2023-05-23T19:59:04.538Z,13.03
2023-05-23T20:04:10.073Z,11.70
2023-05-23T20:09:13.388Z,14.97
2023-05-23T20:14:17.099Z,12.03
2023-05-23T20:19:20.468Z,13.80
2023-05-23T20:24:24.129Z,13.77
2023-05-23T20:29:27.052Z,14.67
2023-05-23T20:34:30.054Z,16.50
2023-05-23T20:39:33.546Z,12.93
2023-05-23T20:44:37.882Z,18.27
2023-05-23T20:49:42.351Z,16.83
2023-05-23T20:54:48.102Z,19.27
2023-05-23T20:59:52.698Z,14.80
2023-05-23T21:04:55.544Z,18.47
2023-05-23T21:09:58.408Z,13.87
2023-05-23T21:15:01.294Z,17.93
2023-05-23T21:20:05.597Z,15.27
2023-05-23T21:25:08.790Z,15.97
2023-05-23T21:30:12.500Z,14.93
2023-05-23T21:35:15.412Z,14.13
2023-05-23T21:40:18.378Z,13.43
2023-05-23T21:45:21.399Z,13.40
2023-05-23T21:50:24.236Z,12.57
2023-05-23T21:55:27.446Z,15.07
2023-05-23T22:00:31.111Z,12.53
2023-05-23T22:05:33.978Z,15.27
2023-05-23T22:10:37.080Z,14.63
2023-05-23T22:15:40.185Z,17.00
2023-05-23T22:20:43.312Z,15.40
2023-05-23T22:25:46.596Z,14.77
2023-05-23T22:30:49.421Z,14.33
2023-05-23T22:35:52.315Z,14.40
2023-05-23T22:40:55.148Z,13.23
2023-05-23T22:45:58.042Z,14.33
2023-05-23T22:51:05.535Z,13.60
2023-05-23T22:56:08.382Z,13.63
2023-05-23T23:01:11.309Z,12.70
2023-05-23T23:06:14.200Z,12.13
2023-05-23T23:11:17.063Z,11.63
2023-05-23T23:16:21.169Z,14.90
2023-05-23T23:21:24.325Z,13.13
2023-05-23T23:26:27.797Z,11.17
2023-05-23T23:31:30.894Z,13.07
2023-05-23T23:36:33.804Z,13.07
2023-05-23T23:41:36.638Z,15.40
